sensor_id;sensor_type;location;lat;lon;timestamp;noise_LAeq;noise_LA_min;noise_LA_max;noise_LA01;noise_LA95
73663;Laerm;61956;52.540;13.382;2023-04-24T11:44:46;61.50;57.53;65.92;;
73663;Laerm;61956;52.540;13.382;2023-04-24T11:47:36;63.74;59.95;66.31;;
73663;Laerm;61956;52.540;13.382;2023-04-24T11:50:09;63.80;59.19;66.69;;
73663;Laerm;61956;52.540;13.382;2023-04-24T11:52:40;63.92;59.36;67.98;;
73663;Laerm;61956;52.540;13.382;2023-04-24T11:55:24;63.94;59.83;66.49;;
73663;Laerm;61956;52.540;13.382;2023-04-24T11:57:57;63.88;59.65;66.67;;
73663;Laerm;61956;52.540;13.382;2023-04-24T12:00:30;63.86;59.71;71.47;;
73663;Laerm;61956;52.540;13.382;2023-04-24T12:03:08;63.92;59.38;66.68;;
73663;Laerm;61956;52.540;13.382;2023-04-24T12:05:39;63.95;59.59;66.69;;
73663;Laerm;61956;52.540;13.382;2023-04-24T12:08:09;63.99;59.84;73.59;;
73663;Laerm;61956;52.540;13.382;2023-04-24T12:10:38;63.92;60.04;66.94;;
73663;Laerm;61956;52.540;13.382;2023-04-24T12:13:09;63.96;59.71;67.03;;
73663;Laerm;61956;52.540;13.382;2023-04-24T12:15:40;63.72;59.77;66.54;;
73663;Laerm;61956;52.540;13.382;2023-04-24T12:18:12;63.99;60.19;66.78;;
73663;Laerm;61956;52.540;13.382;2023-04-24T13:22:36;63.35;58.68;66.54;;
73663;Laerm;61956;52.540;13.382;2023-04-24T13:25:07;63.68;59.95;66.40;;
73663;Laerm;61956;52.540;13.382;2023-04-24T13:27:38;63.60;60.15;66.16;;
73663;Laerm;61956;52.540;13.382;2023-04-24T13:30:09;63.75;60.64;66.54;;
73663;Laerm;61956;52.540;13.382;2023-04-24T13:35:19;63.44;59.77;66.09;;
73663;Laerm;61956;52.540;13.382;2023-04-24T13:37:49;63.54;59.93;66.12;;
73663;Laerm;61956;52.540;13.382;2023-04-24T13:40:18;63.59;60.50;66.27;;
73663;Laerm;61956;52.540;13.382;2023-04-24T13:42:47;63.57;60.17;66.12;;
73663;Laerm;61956;52.540;13.382;2023-04-24T13:45:17;63.58;59.98;66.10;;
73663;Laerm;61956;52.540;13.382;2023-04-24T13:47:46;63.82;60.21;66.18;;
73663;Laerm;61956;52.540;13.382;2023-04-24T13:50:15;63.79;59.47;74.80;;
73663;Laerm;61956;52.540;13.382;2023-04-24T13:52:47;63.73;60.09;67.76;;
73663;Laerm;61956;52.540;13.382;2023-04-24T13:55:16;63.56;60.25;66.62;;
73663;Laerm;61956;52.540;13.382;2023-04-24T13:57:46;63.84;59.48;67.60;;
73663;Laerm;61956;52.540;13.382;2023-04-24T14:00:16;63.75;60.11;66.57;;
73663;Laerm;61956;52.540;13.382;2023-04-24T14:02:46;63.88;60.43;66.37;;
73663;Laerm;61956;52.540;13.382;2023-04-24T14:05:16;63.78;59.65;68.57;;
73663;Laerm;61956;52.540;13.382;2023-04-24T14:07:50;63.77;58.94;66.53;;
73663;Laerm;61956;52.540;13.382;2023-04-24T14:10:19;63.82;58.97;66.42;;
73663;Laerm;61956;52.540;13.382;2023-04-24T14:12:48;63.86;60.65;66.42;;
73663;Laerm;61956;52.540;13.382;2023-04-24T14:15:18;63.91;60.36;66.46;;
73663;Laerm;61956;52.540;13.382;2023-04-24T14:17:48;63.53;58.68;66.63;;
73663;Laerm;61956;52.540;13.382;2023-04-24T14:20:17;63.87;60.07;66.38;;
73663;Laerm;61956;52.540;13.382;2023-04-24T14:22:49;63.83;60.05;66.36;;
73663;Laerm;61956;52.540;13.382;2023-04-24T14:25:19;63.71;59.59;66.62;;
73663;Laerm;61956;52.540;13.382;2023-04-24T14:27:48;63.97;60.21;66.62;;
73663;Laerm;61956;52.540;13.382;2023-04-24T14:30:17;63.90;58.85;66.75;;
73663;Laerm;61956;52.540;13.382;2023-04-24T14:32:47;63.87;59.89;66.55;;
73663;Laerm;61956;52.540;13.382;2023-04-24T14:36:41;63.64;59.98;66.12;;
73663;Laerm;61956;52.540;13.382;2023-04-24T14:39:11;63.60;59.63;66.20;;
73663;Laerm;61956;52.540;13.382;2023-04-24T14:41:40;63.68;59.54;66.30;;
73663;Laerm;61956;52.540;13.382;2023-04-24T14:44:09;63.75;59.70;68.55;;
73663;Laerm;61956;52.540;13.382;2023-04-24T14:46:42;63.79;59.23;66.67;;
73663;Laerm;61956;52.540;13.382;2023-04-24T14:49:11;63.68;59.05;66.22;;
73663;Laerm;61956;52.540;13.382;2023-04-24T14:51:43;63.85;60.08;66.58;;
73663;Laerm;61956;52.540;13.382;2023-04-24T14:54:13;63.77;59.64;72.81;;
73663;Laerm;61956;52.540;13.382;2023-04-24T14:56:42;63.80;59.42;66.45;;
73663;Laerm;61956;52.540;13.382;2023-04-24T14:59:11;63.87;60.14;67.53;;
73663;Laerm;61956;52.540;13.382;2023-04-24T15:01:41;63.75;59.65;66.53;;
73663;Laerm;61956;52.540;13.382;2023-04-24T15:06:01;63.63;60.42;66.46;;
73663;Laerm;61956;52.540;13.382;2023-04-24T15:08:31;63.68;59.93;66.27;;
73663;Laerm;61956;52.540;13.382;2023-04-24T15:11:00;63.48;59.42;66.20;;
73663;Laerm;61956;52.540;13.382;2023-04-24T15:16:06;63.69;59.24;66.67;;
73663;Laerm;61956;52.540;13.382;2023-04-24T15:19:52;63.84;60.05;71.75;;
73663;Laerm;61956;52.540;13.382;2023-04-24T15:23:25;61.53;57.48;65.48;;
73663;Laerm;61956;52.540;13.382;2023-04-24T15:25:55;61.51;57.97;65.22;;
73663;Laerm;61956;52.540;13.382;2023-04-24T15:34:27;63.60;59.18;66.25;;
73663;Laerm;61956;52.540;13.382;2023-04-24T15:36:58;63.68;59.44;66.30;;
73663;Laerm;61956;52.540;13.382;2023-04-24T15:41:18;63.64;59.57;70.51;;
73663;Laerm;61956;52.540;13.382;2023-04-24T15:43:47;63.70;59.12;66.46;;
73663;Laerm;61956;52.540;13.382;2023-04-24T15:46:16;63.73;59.56;66.50;;
73663;Laerm;61956;52.540;13.382;2023-04-24T15:52:26;63.72;59.63;67.55;;
73663;Laerm;61956;52.540;13.382;2023-04-24T15:57:11;63.60;58.85;66.46;;
73663;Laerm;61956;52.540;13.382;2023-04-24T16:00:53;61.05;57.55;65.92;;
73663;Laerm;61956;52.540;13.382;2023-04-24T16:06:42;62.25;57.96;70.38;;
73663;Laerm;61956;52.540;13.382;2023-04-24T16:44:53;63.81;59.08;66.51;;
73663;Laerm;61956;52.540;13.382;2023-04-24T16:47:44;63.54;58.92;66.86;;
73663;Laerm;61956;52.540;13.382;2023-04-24T16:57:28;63.70;59.09;66.93;;
73663;Laerm;61956;52.540;13.382;2023-04-24T16:59:57;63.43;58.65;66.78;;
73663;Laerm;61956;52.540;13.382;2023-04-24T17:02:27;63.45;58.79;66.73;;
73663;Laerm;61956;52.540;13.382;2023-04-24T17:04:56;63.54;59.15;66.50;;
73663;Laerm;61956;52.540;13.382;2023-04-24T17:07:25;63.41;58.49;66.47;;
73663;Laerm;61956;52.540;13.382;2023-04-24T17:09:55;63.51;59.01;66.53;;
73663;Laerm;61956;52.540;13.382;2023-04-24T17:12:25;63.43;58.49;66.76;;
73663;Laerm;61956;52.540;13.382;2023-04-24T17:14:56;63.47;59.07;66.45;;
73663;Laerm;61956;52.540;13.382;2023-04-24T17:17:26;63.22;58.34;67.29;;
73663;Laerm;61956;52.540;13.382;2023-04-24T17:19:55;63.36;58.79;66.32;;
73663;Laerm;61956;52.540;13.382;2023-04-24T17:22:24;63.35;58.59;66.50;;
73663;Laerm;61956;52.540;13.382;2023-04-24T17:24:54;63.38;59.02;66.30;;
73663;Laerm;61956;52.540;13.382;2023-04-24T17:27:23;63.40;58.79;66.61;;
73663;Laerm;61956;52.540;13.382;2023-04-24T17:29:55;63.34;58.89;66.69;;
73663;Laerm;61956;52.540;13.382;2023-04-24T17:32:24;63.38;58.87;66.37;;
73663;Laerm;61956;52.540;13.382;2023-04-24T17:34:54;63.37;58.95;66.64;;
73663;Laerm;61956;52.540;13.382;2023-04-24T17:37:23;63.34;58.84;66.67;;
73663;Laerm;61956;52.540;13.382;2023-04-24T17:39:55;63.36;59.27;66.53;;
73663;Laerm;61956;52.540;13.382;2023-04-24T17:42:24;63.38;58.21;66.67;;
73663;Laerm;61956;52.540;13.382;2023-04-24T17:44:56;63.32;58.54;66.57;;
73663;Laerm;61956;52.540;13.382;2023-04-24T17:47:26;63.43;58.55;66.94;;
73663;Laerm;61956;52.540;13.382;2023-04-24T17:49:55;63.42;59.00;66.67;;
73663;Laerm;61956;52.540;13.382;2023-04-24T17:52:24;63.55;58.96;66.53;;
73663;Laerm;61956;52.540;13.382;2023-04-24T17:54:54;63.30;58.57;66.28;;
73663;Laerm;61956;52.540;13.382;2023-04-24T17:57:23;63.40;59.10;66.23;;
73663;Laerm;61956;52.540;13.382;2023-04-24T17:59:52;63.59;58.89;66.74;;
73663;Laerm;61956;52.540;13.382;2023-04-24T18:02:25;63.54;58.60;67.23;;
73663;Laerm;61956;52.540;13.382;2023-04-24T18:04:54;63.56;58.79;66.68;;
73663;Laerm;61956;52.540;13.382;2023-04-24T18:07:23;63.67;58.84;66.44;;
73663;Laerm;61956;52.540;13.382;2023-04-24T18:09:52;63.60;59.05;66.89;;
73663;Laerm;61956;52.540;13.382;2023-04-24T18:12:21;63.58;58.71;66.44;;
73663;Laerm;61956;52.540;13.382;2023-04-24T18:14:51;63.35;58.75;66.51;;
73663;Laerm;61956;52.540;13.382;2023-04-24T18:17:20;63.57;58.63;66.59;;
73663;Laerm;61956;52.540;13.382;2023-04-24T18:19:52;64.39;58.89;72.98;;
73663;Laerm;61956;52.540;13.382;2023-04-24T18:22:21;63.54;58.74;67.28;;
73663;Laerm;61956;52.540;13.382;2023-04-24T18:24:50;63.69;58.57;66.84;;
73663;Laerm;61956;52.540;13.382;2023-04-24T18:27:20;63.54;58.63;66.94;;
73663;Laerm;61956;52.540;13.382;2023-04-24T18:29:53;63.51;57.97;66.68;;
73663;Laerm;61956;52.540;13.382;2023-04-24T18:32:23;63.44;58.39;67.38;;
73663;Laerm;61956;52.540;13.382;2023-04-24T18:34:55;63.62;58.66;66.95;;
73663;Laerm;61956;52.540;13.382;2023-04-24T18:37:24;63.95;59.16;66.75;;
73663;Laerm;61956;52.540;13.382;2023-04-24T18:39:54;63.77;59.34;66.61;;
73663;Laerm;61956;52.540;13.382;2023-04-24T18:42:23;63.85;58.75;66.61;;
73663;Laerm;61956;52.540;13.382;2023-04-24T18:44:52;63.77;58.48;66.72;;
73663;Laerm;61956;52.540;13.382;2023-04-24T18:47:26;63.63;58.95;66.64;;
73663;Laerm;61956;52.540;13.382;2023-04-24T18:49:58;63.88;58.13;67.02;;
73663;Laerm;61956;52.540;13.382;2023-04-24T18:52:28;64.16;59.42;67.18;;
73663;Laerm;61956;52.540;13.382;2023-04-24T18:54:57;63.79;59.02;67.00;;
73663;Laerm;61956;52.540;13.382;2023-04-24T18:57:27;63.75;58.76;67.37;;
73663;Laerm;61956;52.540;13.382;2023-04-24T18:59:56;64.49;60.04;71.14;;
73663;Laerm;61956;52.540;13.382;2023-04-24T19:02:26;63.92;58.39;66.80;;
73663;Laerm;61956;52.540;13.382;2023-04-24T19:04:55;63.86;58.52;66.67;;
73663;Laerm;61956;52.540;13.382;2023-04-24T19:07:26;64.05;58.54;66.87;;
73663;Laerm;61956;52.540;13.382;2023-04-24T19:09:56;64.08;58.61;67.10;;
73663;Laerm;61956;52.540;13.382;2023-04-24T19:12:25;64.02;58.54;66.93;;
73663;Laerm;61956;52.540;13.382;2023-04-24T19:14:54;64.34;59.57;67.15;;
73663;Laerm;61956;52.540;13.382;2023-04-24T19:17:24;64.33;60.86;67.28;;
73663;Laerm;61956;52.540;13.382;2023-04-24T19:19:53;64.30;59.10;67.00;;
73663;Laerm;61956;52.540;13.382;2023-04-24T19:22:22;64.40;59.87;67.61;;
73663;Laerm;61956;52.540;13.382;2023-04-24T19:24:56;64.36;60.56;67.92;;
73663;Laerm;61956;52.540;13.382;2023-04-24T19:27:26;64.19;58.50;68.96;;
73663;Laerm;61956;52.540;13.382;2023-04-24T19:29:55;64.44;60.69;67.41;;
73663;Laerm;61956;52.540;13.382;2023-04-24T19:32:24;64.35;60.18;67.49;;
73663;Laerm;61956;52.540;13.382;2023-04-24T19:34:53;64.43;60.53;67.22;;
73663;Laerm;61956;52.540;13.382;2023-04-24T19:37:23;64.35;60.42;66.79;;
73663;Laerm;61956;52.540;13.382;2023-04-24T19:39:52;64.47;59.94;68.95;;
73663;Laerm;61956;52.540;13.382;2023-04-24T19:42:24;64.39;60.79;67.20;;
73663;Laerm;61956;52.540;13.382;2023-04-24T19:44:53;64.37;60.25;67.57;;
73663;Laerm;61956;52.540;13.382;2023-04-24T19:47:23;64.39;60.02;67.25;;
73663;Laerm;61956;52.540;13.382;2023-04-24T19:49:52;64.40;59.85;67.25;;
73663;Laerm;61956;52.540;13.382;2023-04-24T19:52:21;64.36;60.36;67.14;;
73663;Laerm;61956;52.540;13.382;2023-04-24T19:54:50;64.28;58.79;67.61;;
73663;Laerm;61956;52.540;13.382;2023-04-24T19:57:20;64.48;60.16;67.42;;
73663;Laerm;61956;52.540;13.382;2023-04-24T19:59:51;64.51;60.60;68.00;;
73663;Laerm;61956;52.540;13.382;2023-04-24T20:02:21;64.52;60.70;67.38;;
73663;Laerm;61956;52.540;13.382;2023-04-24T20:04:50;64.54;61.09;67.46;;
73663;Laerm;61956;52.540;13.382;2023-04-24T20:07:20;64.53;59.69;67.66;;
73663;Laerm;61956;52.540;13.382;2023-04-24T20:09:51;64.52;59.05;67.78;;
73663;Laerm;61956;52.540;13.382;2023-04-24T20:12:20;64.47;58.83;67.57;;
73663;Laerm;61956;52.540;13.382;2023-04-24T20:14:52;64.61;60.39;67.12;;
73663;Laerm;61956;52.540;13.382;2023-04-24T20:17:21;64.64;60.79;67.08;;
73663;Laerm;61956;52.540;13.382;2023-04-24T20:19:51;64.46;58.63;67.30;;
73663;Laerm;61956;52.540;13.382;2023-04-24T20:22:21;64.47;60.11;67.12;;
73663;Laerm;61956;52.540;13.382;2023-04-24T20:24:50;64.62;60.51;67.30;;
73663;Laerm;61956;52.540;13.382;2023-04-24T20:27:19;64.70;60.54;67.21;;
73663;Laerm;61956;52.540;13.382;2023-04-24T20:32:21;63.80;58.42;66.90;;
73663;Laerm;61956;52.540;13.382;2023-04-24T20:34:50;63.81;58.80;67.05;;
73663;Laerm;61956;52.540;13.382;2023-04-24T20:37:19;63.81;57.97;66.99;;
73663;Laerm;61956;52.540;13.382;2023-04-24T20:39:49;63.40;58.88;66.45;;
73663;Laerm;61956;52.540;13.382;2023-04-24T20:42:19;63.80;58.27;67.06;;
73663;Laerm;61956;52.540;13.382;2023-04-24T20:44:50;63.75;58.44;66.69;;
73663;Laerm;61956;52.540;13.382;2023-04-24T20:47:20;63.78;58.76;66.45;;
73663;Laerm;61956;52.540;13.382;2023-04-24T20:49:49;63.83;58.52;66.87;;
73663;Laerm;61956;52.540;13.382;2023-04-24T20:52:18;63.74;58.94;66.70;;
73663;Laerm;61956;52.540;13.382;2023-04-24T20:54:48;63.77;58.33;66.51;;
73663;Laerm;61956;52.540;13.382;2023-04-24T20:57:17;63.82;58.45;66.66;;
73663;Laerm;61956;52.540;13.382;2023-04-24T20:59:46;63.81;58.44;66.74;;
73663;Laerm;61956;52.540;13.382;2023-04-24T21:02:18;63.82;58.18;67.02;;
73663;Laerm;61956;52.540;13.382;2023-04-24T21:04:47;63.77;58.10;66.66;;
73663;Laerm;61956;52.540;13.382;2023-04-24T21:07:17;63.76;58.43;66.66;;
73663;Laerm;61956;52.540;13.382;2023-04-24T21:09:46;63.82;57.95;66.86;;
73663;Laerm;61956;52.540;13.382;2023-04-24T21:12:16;63.78;58.61;67.10;;
73663;Laerm;61956;52.540;13.382;2023-04-24T21:14:45;63.75;58.69;66.75;;
73663;Laerm;61956;52.540;13.382;2023-04-24T21:17:14;63.71;57.63;66.73;;
73663;Laerm;61956;52.540;13.382;2023-04-24T21:19:47;63.72;58.44;66.68;;
73663;Laerm;61956;52.540;13.382;2023-04-24T21:22:16;63.75;58.29;66.84;;
73663;Laerm;61956;52.540;13.382;2023-04-24T21:24:45;63.81;58.39;66.78;;
73663;Laerm;61956;52.540;13.382;2023-04-24T21:27:14;63.70;57.76;66.41;;
73663;Laerm;61956;52.540;13.382;2023-04-24T21:29:44;63.74;58.13;66.61;;
73663;Laerm;61956;52.540;13.382;2023-04-24T21:32:13;63.77;58.40;66.69;;
73663;Laerm;61956;52.540;13.382;2023-04-24T21:34:42;63.72;58.29;66.56;;
73663;Laerm;61956;52.540;13.382;2023-04-24T21:37:14;63.76;58.62;66.54;;
73663;Laerm;61956;52.540;13.382;2023-04-24T21:39:43;63.70;58.47;66.38;;
73663;Laerm;61956;52.540;13.382;2023-04-24T21:42:13;63.66;58.21;66.66;;
73663;Laerm;61956;52.540;13.382;2023-04-24T21:44:42;63.69;58.52;67.03;;
73663;Laerm;61956;52.540;13.382;2023-04-24T21:47:11;63.72;58.01;66.98;;
73663;Laerm;61956;52.540;13.382;2023-04-24T21:49:40;63.74;58.15;67.27;;
73663;Laerm;61956;52.540;13.382;2023-04-24T21:52:09;63.64;57.79;66.74;;
73663;Laerm;61956;52.540;13.382;2023-04-24T21:54:41;63.73;58.53;66.54;;
73663;Laerm;61956;52.540;13.382;2023-04-24T21:57:11;63.74;57.62;66.60;;
73663;Laerm;61956;52.540;13.382;2023-04-24T21:59:40;63.80;58.20;66.82;;
73663;Laerm;61956;52.540;13.382;2023-04-24T22:02:10;63.74;58.44;67.51;;
73663;Laerm;61956;52.540;13.382;2023-04-24T22:04:40;63.80;58.47;66.97;;
73663;Laerm;61956;52.540;13.382;2023-04-24T22:07:10;63.77;58.39;66.59;;
73663;Laerm;61956;52.540;13.382;2023-04-24T22:09:42;63.72;58.38;67.00;;
73663;Laerm;61956;52.540;13.382;2023-04-24T22:12:11;63.73;57.98;67.03;;
73663;Laerm;61956;52.540;13.382;2023-04-24T22:14:40;63.79;58.23;67.08;;
73663;Laerm;61956;52.540;13.382;2023-04-24T22:17:09;63.77;58.16;66.81;;
73663;Laerm;61956;52.540;13.382;2023-04-24T22:19:40;63.77;58.29;66.79;;
73663;Laerm;61956;52.540;13.382;2023-04-24T22:22:09;63.76;58.42;67.05;;
73663;Laerm;61956;52.540;13.382;2023-04-24T22:24:41;63.77;58.49;66.66;;
73663;Laerm;61956;52.540;13.382;2023-04-24T22:27:11;63.75;58.02;66.75;;
73663;Laerm;61956;52.540;13.382;2023-04-24T22:29:40;63.79;58.39;66.87;;
73663;Laerm;61956;52.540;13.382;2023-04-24T22:32:10;63.78;58.26;66.94;;
73663;Laerm;61956;52.540;13.382;2023-04-24T22:34:39;63.81;58.07;66.59;;
73663;Laerm;61956;52.540;13.382;2023-04-24T22:37:08;63.78;58.04;66.77;;
73663;Laerm;61956;52.540;13.382;2023-04-24T22:39:37;63.77;58.05;67.10;;
73663;Laerm;61956;52.540;13.382;2023-04-24T22:42:09;63.71;57.94;67.09;;
73663;Laerm;61956;52.540;13.382;2023-04-24T22:44:38;63.81;58.37;67.05;;
73663;Laerm;61956;52.540;13.382;2023-04-24T22:47:08;63.75;57.69;66.81;;
73663;Laerm;61956;52.540;13.382;2023-04-24T22:49:37;63.71;57.65;67.02;;
73663;Laerm;61956;52.540;13.382;2023-04-24T22:52:07;63.84;58.34;66.92;;
73663;Laerm;61956;52.540;13.382;2023-04-24T22:54:36;63.84;58.53;66.84;;
73663;Laerm;61956;52.540;13.382;2023-04-24T22:57:08;63.80;58.09;66.75;;
73663;Laerm;61956;52.540;13.382;2023-04-24T22:59:38;63.85;57.90;67.21;;
73663;Laerm;61956;52.540;13.382;2023-04-24T23:02:07;63.80;57.95;67.03;;
73663;Laerm;61956;52.540;13.382;2023-04-24T23:04:36;63.81;58.09;66.88;;
73663;Laerm;61956;52.540;13.382;2023-04-24T23:07:05;63.81;58.09;66.88;;
73663;Laerm;61956;52.540;13.382;2023-04-24T23:09:35;63.83;58.07;66.96;;
73663;Laerm;61956;52.540;13.382;2023-04-24T23:12:04;63.81;58.26;66.89;;
73663;Laerm;61956;52.540;13.382;2023-04-24T23:14:37;63.82;58.02;66.87;;
73663;Laerm;61956;52.540;13.382;2023-04-24T23:17:08;63.80;58.06;66.68;;
73663;Laerm;61956;52.540;13.382;2023-04-24T23:19:37;63.83;58.23;66.98;;
73663;Laerm;61956;52.540;13.382;2023-04-24T23:22:06;63.77;57.88;66.77;;
73663;Laerm;61956;52.540;13.382;2023-04-24T23:24:36;64.11;58.03;72.04;;
73663;Laerm;61956;52.540;13.382;2023-04-24T23:27:05;63.80;58.20;66.93;;
73663;Laerm;61956;52.540;13.382;2023-04-24T23:29:37;63.83;58.00;67.45;;
73663;Laerm;61956;52.540;13.382;2023-04-24T23:32:06;63.80;58.15;67.08;;
73663;Laerm;61956;52.540;13.382;2023-04-24T23:34:36;63.83;57.84;66.67;;
73663;Laerm;61956;52.540;13.382;2023-04-24T23:37:06;63.75;58.16;66.98;;
73663;Laerm;61956;52.540;13.382;2023-04-24T23:39:35;63.81;58.12;67.10;;
73663;Laerm;61956;52.540;13.382;2023-04-24T23:42:05;63.80;57.88;67.26;;
73663;Laerm;61956;52.540;13.382;2023-04-24T23:44:36;63.88;58.12;66.75;;
73663;Laerm;61956;52.540;13.382;2023-04-24T23:47:06;63.85;58.10;67.06;;
73663;Laerm;61956;52.540;13.382;2023-04-24T23:49:35;63.84;57.90;66.78;;
73663;Laerm;61956;52.540;13.382;2023-04-24T23:52:04;63.85;58.16;66.88;;
73663;Laerm;61956;52.540;13.382;2023-04-24T23:54:34;63.86;58.17;66.85;;
73663;Laerm;61956;52.540;13.382;2023-04-24T23:57:03;63.89;58.20;67.16;;
73663;Laerm;61956;52.540;13.382;2023-04-24T23:59:32;63.90;57.86;66.95;;
